Time;durP1;ratioP1;P1;durP2;ratioP2;P2;SDS_P1;SDS_P2;PMS_P1;PMS_P2;Temp;Humidity;BMP_temperature;BMP_pressure;BME280_temperature;BME280_humidity;BME280_pressure;Samples;Min_cycle;Max_cycle;Signal;HPM_P1;HPM_P2
2022/05/20 03:05:22;;;;;;;1.30;1.20;;;28.10;46.50;;;;;;4938566;28;45064;-60
2022/05/20 03:07:48;;;;;;;1.55;1.42;;;28.10;46.40;;;;;;4930777;28;44963;-60
2022/05/20 03:10:13;;;;;;;2.22;1.52;;;28.10;46.50;;;;;;4949525;28;45162;-63
2022/05/20 03:12:39;;;;;;;1.58;1.48;;;28.10;46.50;;;;;;4931000;28;44921;-65
2022/05/20 03:15:06;;;;;;;1.63;1.50;;;28.10;46.50;;;;;;4914237;28;45842;-60
2022/05/20 03:17:32;;;;;;;2.15;1.50;;;28.10;46.50;;;;;;4935541;28;45166;-59
2022/05/20 03:19:58;;;;;;;1.50;1.40;;;28.10;46.50;;;;;;4925575;28;44819;-62
2022/05/20 03:22:23;;;;;;;1.15;1.05;;;28.10;46.50;;;;;;4927824;28;45106;-62
2022/05/20 03:24:49;;;;;;;1.45;1.25;;;28.10;46.50;;;;;;4941440;28;46132;-61
2022/05/20 03:27:16;;;;;;;1.30;1.20;;;28.10;46.60;;;;;;4940184;28;44952;-62
2022/05/20 03:29:44;;;;;;;1.75;1.38;;;28.10;47.10;;;;;;4947119;28;44970;-61
2022/05/20 03:32:10;;;;;;;1.40;1.30;;;28.10;46.60;;;;;;4948485;28;45105;-61
2022/05/20 03:34:38;;;;;;;1.55;1.33;;;28.10;46.60;;;;;;4942707;28;46090;-62
2022/05/20 03:37:04;;;;;;;1.40;1.30;;;28.10;46.60;;;;;;4942410;28;45168;-61
2022/05/20 03:39:29;;;;;;;1.75;1.40;;;28.00;46.50;;;;;;4949124;28;44891;-62
2022/05/20 03:41:56;;;;;;;1.60;1.50;;;28.00;46.50;;;;;;4942592;28;45133;-60
2022/05/20 03:44:21;;;;;;;1.40;1.30;;;28.10;46.60;;;;;;4948027;28;46073;-62
2022/05/20 03:46:49;;;;;;;1.35;1.25;;;28.10;46.60;;;;;;4948073;28;44738;-63
2022/05/20 03:49:15;;;;;;;1.80;1.48;;;28.00;46.60;;;;;;4947455;28;44839;-62
2022/05/20 03:51:41;;;;;;;1.60;1.50;;;28.00;46.60;;;;;;4943105;28;45067;-59
2022/05/20 03:54:07;;;;;;;1.70;1.40;;;28.10;46.60;;;;;;4946520;28;45880;-64
2022/05/20 03:56:32;;;;;;;1.35;1.25;;;28.00;46.60;;;;;;4947135;28;44902;-58
2022/05/20 03:58:58;;;;;;;3.92;1.40;;;28.00;46.60;;;;;;4943433;28;45355;-61
2022/05/20 04:04:08;;;;;;;1.45;1.35;;;28.00;46.60;;;;;;4938455;28;46020;-62
2022/05/20 04:06:33;;;;;;;1.23;1.13;;;28.00;46.60;;;;;;4941201;28;45053;-61
2022/05/20 04:08:59;;;;;;;1.80;1.70;;;28.00;46.60;;;;;;4945949;28;45101;-65
2022/05/20 04:11:28;;;;;;;1.40;1.30;;;28.00;46.60;;;;;;4940512;28;44762;-61
2022/05/20 04:13:54;;;;;;;1.50;1.40;;;28.00;46.60;;;;;;4922208;28;45376;-60
2022/05/20 04:16:19;;;;;;;1.73;1.60;;;28.00;46.60;;;;;;4946178;28;45099;-63
2022/05/20 04:18:45;;;;;;;1.50;1.40;;;28.00;46.60;;;;;;4944785;28;44896;-58
2022/05/20 04:21:11;;;;;;;1.77;1.38;;;28.00;46.60;;;;;;4941211;28;45149;-63
2022/05/20 04:23:37;;;;;;;1.58;1.48;;;28.00;46.70;;;;;;4944265;28;46274;-61
2022/05/20 04:26:03;;;;;;;1.23;1.13;;;28.00;46.70;;;;;;4942591;28;45066;-63
2022/05/20 04:28:28;;;;;;;1.58;1.00;;;28.00;46.70;;;;;;4944715;28;45059;-62
2022/05/20 04:30:56;;;;;;;1.40;1.30;;;28.00;46.70;;;;;;4947280;28;45028;-63
2022/05/20 04:33:22;;;;;;;2.00;1.80;;;28.00;46.70;;;;;;4944473;28;46231;-61
2022/05/20 04:35:48;;;;;;;1.60;1.48;;;28.00;46.70;;;;;;4944324;28;45193;-62
2022/05/20 04:38:13;;;;;;;1.42;1.33;;;28.00;46.70;;;;;;4947251;28;44860;-61
2022/05/20 04:40:39;;;;;;;1.45;1.35;;;28.00;46.70;;;;;;4944172;28;44925;-64
2022/05/20 04:48:33;;;;;;;1.30;1.20;;;28.00;46.70;;;;;;4925632;28;45366;-61
2022/05/20 04:50:58;;;;;;;1.92;1.30;;;28.00;46.70;;;;;;4940993;28;45618;-59
2022/05/20 04:56:20;;;;;;;1.60;1.40;;;28.00;46.80;;;;;;4912926;28;45115;-62
2022/05/20 04:58:46;;;;;;;1.52;1.42;;;28.00;46.80;;;;;;4942259;28;45147;-58
2022/05/20 05:01:12;;;;;;;1.38;1.27;;;28.00;46.80;;;;;;4948983;28;44891;-58
2022/05/20 05:03:37;;;;;;;1.50;1.40;;;28.00;46.80;;;;;;4937806;28;46268;-61
2022/05/20 05:06:03;;;;;;;2.17;1.27;;;28.00;46.80;;;;;;4942503;28;45372;-61
2022/05/20 05:08:29;;;;;;;1.75;1.65;;;27.90;46.70;;;;;;4949731;28;44951;-61
2022/05/20 05:10:54;;;;;;;1.30;1.20;;;27.90;46.80;;;;;;4945447;28;44785;-62
2022/05/20 05:13:20;;;;;;;2.65;1.25;;;28.00;46.80;;;;;;4938835;28;45938;-64
2022/05/20 05:15:45;;;;;;;1.05;1.00;;;28.00;46.80;;;;;;4946784;28;44948;-63
2022/05/20 05:18:12;;;;;;;1.50;1.40;;;28.00;46.80;;;;;;4949901;28;44924;-60
2022/05/20 05:20:47;;;;;;;2.60;1.45;;;28.00;46.80;;;;;;4943038;28;44790;-62
2022/05/20 05:23:14;;;;;;;2.58;1.40;;;28.00;46.90;;;;;;4928469;28;46587;-60
2022/05/20 05:25:40;;;;;;;1.40;1.30;;;27.90;46.80;;;;;;4949175;28;45204;-58
2022/05/20 05:28:06;;;;;;;1.30;1.20;;;28.00;46.90;;;;;;4934898;28;45092;-62
2022/05/20 05:30:31;;;;;;;1.45;1.35;;;28.00;46.90;;;;;;4950902;28;46012;-62
2022/05/20 05:32:57;;;;;;;1.63;1.52;;;27.90;46.80;;;;;;4943863;28;45274;-64
2022/05/20 05:35:24;;;;;;;1.20;1.10;;;28.00;46.90;;;;;;4946571;28;45076;-64
2022/05/20 05:37:50;;;;;;;1.25;1.15;;;27.90;46.80;;;;;;4950291;28;45253;-61
2022/05/20 05:40:20;;;;;;;1.52;1.42;;;27.90;46.80;;;;;;4947760;28;44913;-58
2022/05/20 05:42:46;;;;;;;1.40;1.30;;;28.00;46.90;;;;;;4946779;28;44915;-61
2022/05/20 05:45:13;;;;;;;1.83;1.40;;;28.00;46.90;;;;;;4944324;28;46047;-62
2022/05/20 05:47:38;;;;;;;2.00;1.10;;;27.90;46.80;;;;;;4949418;28;45346;-62
2022/05/20 05:50:05;;;;;;;1.30;1.20;;;28.00;46.90;;;;;;4942302;28;45054;-60
2022/05/20 05:52:30;;;;;;;1.40;1.25;;;28.00;46.90;;;;;;4950649;28;46197;-61
2022/05/20 05:54:56;;;;;;;1.27;1.17;;;28.00;46.90;;;;;;4946690;28;44892;-62
2022/05/20 05:57:21;;;;;;;1.42;1.27;;;28.00;46.90;;;;;;4949348;28;44833;-62
2022/05/20 05:59:47;;;;;;;1.65;1.55;;;28.00;46.90;;;;;;4943796;28;44971;-63
2022/05/20 06:02:12;;;;;;;1.50;1.40;;;28.00;47.00;;;;;;4947856;28;45983;-62
2022/05/20 06:04:38;;;;;;;1.52;1.42;;;27.90;46.90;;;;;;4945010;28;44639;-64
2022/05/20 06:07:04;;;;;;;2.15;1.27;;;28.00;46.90;;;;;;4947567;28;45264;-57
2022/05/20 06:09:29;;;;;;;2.30;1.73;;;28.00;46.90;;;;;;4949828;28;45133;-60
2022/05/20 06:11:55;;;;;;;2.15;1.60;;;28.00;46.80;;;;;;4948011;28;46138;-59
2022/05/20 06:14:21;;;;;;;1.50;1.33;;;28.10;46.70;;;;;;4950399;28;44994;-64
2022/05/20 06:16:46;;;;;;;1.80;1.70;;;28.10;46.70;;;;;;4943480;28;45268;-62
2022/05/20 06:19:12;;;;;;;1.77;1.65;;;28.20;46.60;;;;;;4945971;28;44947;-63
2022/05/20 06:21:40;;;;;;;1.67;1.58;;;28.20;46.60;;;;;;4942219;28;45161;-62
2022/05/20 06:24:06;;;;;;;1.60;1.35;;;28.20;46.50;;;;;;4947728;28;44993;-62
2022/05/20 06:26:32;;;;;;;1.80;1.70;;;28.20;46.40;;;;;;4950603;28;45398;-60
2022/05/20 06:28:57;;;;;;;1.38;1.27;;;28.20;46.40;;;;;;4941215;28;45094;-62
2022/05/20 06:31:23;;;;;;;1.60;1.50;;;28.30;46.40;;;;;;4948710;28;46135;-62
2022/05/20 06:33:48;;;;;;;2.00;1.60;;;28.30;46.50;;;;;;4942733;28;45103;-62
2022/05/20 06:41:44;;;;;;;1.70;1.60;;;28.30;46.40;;;;;;4947624;28;45961;-65
2022/05/20 06:44:10;;;;;;;1.30;1.20;;;28.30;46.40;;;;;;4944545;28;44890;-61
2022/05/20 06:46:35;;;;;;;1.40;1.30;;;28.30;46.40;;;;;;4948865;28;44753;-60
2022/05/20 06:49:01;;;;;;;1.55;1.38;;;28.30;46.30;;;;;;4948578;28;45111;-62
2022/05/20 06:51:35;;;;;;;1.42;1.33;;;28.30;46.40;;;;;;4943364;28;45920;-62
2022/05/20 06:54:01;;;;;;;1.40;1.30;;;28.30;46.30;;;;;;4945797;28;45016;-62
2022/05/20 06:56:31;;;;;;;1.27;1.17;;;28.30;46.30;;;;;;4947208;28;45178;-59
2022/05/20 06:59:00;;;;;;;1.83;1.30;;;28.40;46.30;;;;;;4948505;28;44620;-60
2022/05/20 07:01:25;;;;;;;1.50;1.30;;;28.40;46.30;;;;;;4945272;28;45121;-61
2022/05/20 07:03:51;;;;;;;2.03;1.30;;;28.40;46.40;;;;;;4948838;28;45234;-64
2022/05/20 07:06:17;;;;;;;1.10;1.00;;;28.40;46.40;;;;;;4942497;28;45047;-60
2022/05/20 07:08:48;;;;;;;1.50;1.35;;;28.40;46.40;;;;;;4951335;28;44946;-61
2022/05/20 07:11:14;;;;;;;1.30;1.20;;;28.40;46.40;;;;;;4944501;28;45569;-60
2022/05/20 07:13:40;;;;;;;2.65;1.15;;;28.40;46.40;;;;;;4944257;28;44914;-62
2022/05/20 07:16:05;;;;;;;1.70;1.05;;;28.40;46.40;;;;;;4942726;28;45299;-62
2022/05/20 07:18:32;;;;;;;1.85;1.42;;;28.40;46.40;;;;;;4948184;28;45225;-60
2022/05/20 07:20:57;;;;;;;1.20;1.10;;;28.40;46.40;;;;;;4945516;28;46004;-63
2022/05/20 07:23:25;;;;;;;1.13;1.10;;;28.40;46.40;;;;;;4946818;28;44899;-61
2022/05/20 07:25:51;;;;;;;1.30;1.17;;;28.40;46.40;;;;;;4938288;28;44942;-61
2022/05/20 07:28:16;;;;;;;1.50;1.40;;;28.40;46.30;;;;;;4927740;28;45110;-61
2022/05/20 07:30:42;;;;;;;1.60;1.30;;;28.40;46.40;;;;;;4942345;28;45950;-63
2022/05/20 07:33:08;;;;;;;1.88;1.38;;;28.50;46.40;;;;;;4935727;28;44720;-58
2022/05/20 07:35:33;;;;;;;1.58;1.45;;;28.50;46.30;;;;;;4937449;28;44690;-63
2022/05/20 07:37:59;;;;;;;1.50;1.40;;;28.50;46.30;;;;;;4946979;28;45091;-61
2022/05/20 07:40:24;;;;;;;1.40;1.30;;;28.50;46.30;;;;;;4944985;28;45271;-62
2022/05/20 07:42:51;;;;;;;1.60;1.50;;;28.50;46.30;;;;;;4943234;28;44878;-59
2022/05/20 07:45:16;;;;;;;2.05;1.38;;;28.50;46.30;;;;;;4947026;28;45158;-61
2022/05/20 07:47:42;;;;;;;1.80;1.42;;;28.50;46.30;;;;;;4943886;28;45110;-60
2022/05/20 07:50:09;;;;;;;1.63;1.50;;;28.50;46.30;;;;;;4949820;28;46766;-61
2022/05/20 07:55:22;;;;;;;1.35;1.25;;;28.50;46.20;;;;;;4931008;28;44867;-62
2022/05/20 07:57:47;;;;;;;1.50;1.40;;;28.50;46.20;;;;;;4924548;28;45002;-63
2022/05/20 08:00:14;;;;;;;1.60;1.50;;;28.50;46.20;;;;;;4947314;28;45987;-62
2022/05/20 08:02:41;;;;;;;1.48;1.38;;;28.60;46.20;;;;;;4916329;28;45039;-61
2022/05/20 08:05:07;;;;;;;1.80;1.50;;;28.60;46.20;;;;;;4928136;28;45021;-62
2022/05/20 08:07:33;;;;;;;1.75;1.50;;;28.60;46.20;;;;;;4949600;28;45269;-59
2022/05/20 08:10:00;;;;;;;1.35;1.25;;;28.60;46.20;;;;;;4941186;28;46494;-61
2022/05/20 08:12:25;;;;;;;1.60;1.50;;;28.60;46.20;;;;;;4945544;28;44659;-61
2022/05/20 08:14:51;;;;;;;1.60;1.50;;;28.60;46.20;;;;;;4947565;28;44781;-64
2022/05/20 08:17:19;;;;;;;1.70;1.48;;;28.60;46.20;;;;;;4941842;28;45725;-61
2022/05/20 08:19:44;;;;;;;1.38;1.27;;;28.60;46.10;;;;;;4947455;28;46072;-61
2022/05/20 08:22:10;;;;;;;1.45;1.35;;;28.60;46.10;;;;;;4948554;28;45137;-58
2022/05/20 08:24:36;;;;;;;1.40;1.30;;;28.60;46.10;;;;;;4942071;28;44975;-62
2022/05/20 08:27:01;;;;;;;1.60;1.50;;;28.70;46.10;;;;;;4943609;28;45079;-63
2022/05/20 08:29:27;;;;;;;1.27;1.17;;;28.70;46.10;;;;;;4948258;28;45965;-61
2022/05/20 08:31:53;;;;;;;1.50;1.33;;;28.70;46.00;;;;;;4947876;28;44728;-59
2022/05/20 08:34:18;;;;;;;2.03;1.70;;;28.70;46.10;;;;;;4949158;28;44942;-64
2022/05/20 08:36:44;;;;;;;1.35;1.10;;;28.70;46.10;;;;;;4946559;28;44963;-60
2022/05/20 08:39:14;;;;;;;1.77;1.65;;;28.70;46.00;;;;;;4945577;28;46145;-60
2022/05/20 08:41:49;;;;;;;1.45;1.35;;;28.80;46.10;;;;;;4942699;28;44825;-62
2022/05/20 08:44:17;;;;;;;2.88;1.17;;;28.80;46.10;;;;;;4913280;28;44969;-61
2022/05/20 08:46:43;;;;;;;1.88;1.40;;;28.80;46.10;;;;;;4942591;28;45277;-63
2022/05/20 08:49:10;;;;;;;2.33;1.55;;;28.80;46.10;;;;;;4942719;28;46604;-62
2022/05/20 08:51:42;;;;;;;1.73;1.55;;;28.80;46.00;;;;;;4911306;28;45082;-63
2022/05/20 08:54:07;;;;;;;1.38;1.27;;;28.80;46.00;;;;;;4949445;28;45067;-59
2022/05/20 08:56:33;;;;;;;1.63;1.40;;;28.80;46.00;;;;;;4945814;28;45203;-60
2022/05/20 08:59:01;;;;;;;1.33;1.23;;;28.80;46.00;;;;;;4916247;28;46127;-61
2022/05/20 09:01:38;;;;;;;1.48;1.38;;;28.90;46.10;;;;;;4943660;28;44953;-57
2022/05/20 09:04:06;;;;;;;1.60;1.50;;;28.90;46.10;;;;;;4924427;28;44890;-60
2022/05/20 09:06:32;;;;;;;1.40;1.30;;;28.90;46.10;;;;;;4946883;28;44943;-64
2022/05/20 09:09:12;;;;;;;2.25;1.50;;;28.90;46.00;;;;;;4940982;28;45038;-62
2022/05/20 09:11:38;;;;;;;1.50;1.38;;;28.90;46.00;;;;;;4936747;28;45008;-63
2022/05/20 09:16:56;;;;;;;2.00;1.63;;;28.90;46.00;;;;;;4944768;28;45147;-63
2022/05/20 09:19:27;;;;;;;1.67;1.58;;;28.90;46.00;;;;;;4944378;28;45935;-59
2022/05/20 09:22:13;;;;;;;1.40;1.30;;;28.90;46.00;;;;;;4940283;28;45310;-60
2022/05/20 09:24:41;;;;;;;1.73;1.58;;;28.90;46.00;;;;;;4943262;28;45285;-62
2022/05/20 09:27:12;;;;;;;1.40;1.30;;;29.00;46.00;;;;;;4944999;28;45567;-63
2022/05/20 09:29:42;;;;;;;1.25;1.15;;;29.00;46.00;;;;;;4929240;28;46208;-62
2022/05/20 09:32:24;;;;;;;1.38;1.23;;;29.00;45.90;;;;;;4941907;28;44869;-63
2022/05/20 09:35:23;;;;;;;1.40;1.30;;;29.00;45.90;;;;;;4926861;28;45199;-61
2022/05/20 09:37:50;;;;;;;1.67;1.55;;;29.00;45.90;;;;;;4942064;28;44774;-62
2022/05/20 09:40:41;;;;;;;1.50;1.40;;;29.00;46.00;;;;;;4942623;28;46054;-61
2022/05/20 09:43:29;;;;;;;1.75;1.50;;;29.10;46.00;;;;;;4942043;28;44926;-62
2022/05/20 09:45:59;;;;;;;1.42;1.33;;;29.10;46.00;;;;;;4944723;28;44754;-61
2022/05/20 09:48:50;;;;;;;1.42;1.33;;;29.10;45.90;;;;;;4925964;28;44692;-61
2022/05/20 09:51:19;;;;;;;2.63;1.50;;;29.10;45.90;;;;;;4943105;28;45418;-65
2022/05/20 09:54:18;;;;;;;1.70;1.55;;;29.10;45.90;;;;;;4921377;28;45037;-61
2022/05/20 09:56:45;;;;;;;1.70;1.35;;;29.10;45.90;;;;;;4940424;28;44896;-59
2022/05/20 09:59:11;;;;;;;1.45;1.35;;;29.10;45.90;;;;;;4943763;28;44944;-57
2022/05/20 10:01:36;;;;;;;1.35;1.25;;;29.10;45.90;;;;;;4942974;28;46146;-62
2022/05/20 10:04:04;;;;;;;1.38;1.27;;;29.20;46.00;;;;;;4949593;28;45159;-61
2022/05/20 10:06:36;;;;;;;1.55;1.45;;;29.20;45.90;;;;;;4929353;28;45022;-61
2022/05/20 10:09:09;;;;;;;1.60;1.50;;;29.20;45.90;;;;;;4911501;28;45161;-62
2022/05/20 10:11:38;;;;;;;1.50;1.40;;;29.20;46.50;;;;;;4947072;28;46374;-59
2022/05/20 10:14:15;;;;;;;1.52;1.42;;;29.20;45.90;;;;;;4924674;28;44992;-59
2022/05/20 10:17:07;;;;;;;1.38;1.25;;;29.20;45.90;;;;;;4939656;28;44941;-61
2022/05/20 10:19:52;;;;;;;3.00;1.48;;;29.20;45.90;;;;;;4927649;28;44826;-62
2022/05/20 10:22:39;;;;;;;1.60;1.50;;;29.20;45.90;;;;;;4929265;28;46586;-61
2022/05/20 10:25:49;;;;;;;1.73;1.25;;;29.20;45.80;;;;;;4946126;28;44828;-59
2022/05/20 10:34:27;;;;;;;1.40;1.30;;;29.30;45.90;;;;;;4933122;28;46031;-60
2022/05/20 10:37:13;;;;;;;1.50;1.40;;;29.30;45.90;;;;;;4934191;28;44937;-62
2022/05/20 10:39:51;;;;;;;1.50;1.40;;;29.30;45.80;;;;;;4945022;28;45187;-65
2022/05/20 10:42:26;;;;;;;1.35;1.25;;;29.30;45.90;;;;;;4940478;28;45274;-62
2022/05/20 10:48:36;;;;;;;3.33;1.50;;;29.30;45.80;;;;;;4949322;28;44963;-61
2022/05/20 10:51:32;;;;;;;2.42;1.70;;;29.40;45.90;;;;;;4925199;28;44946;-63
2022/05/20 10:54:20;;;;;;;1.40;1.30;;;29.40;45.90;;;;;;4914342;28;45448;-60
2022/05/20 10:57:23;;;;;;;1.30;1.20;;;29.40;45.90;;;;;;4974358;23;45064;-62
2022/05/20 11:00:05;;;;;;;1.60;1.50;;;29.40;45.90;;;;;;4987309;28;44678;-64
2022/05/20 11:03:19;;;;;;;1.30;1.13;;;29.40;45.90;;;;;;4969783;28;45323;-63
2022/05/20 11:06:03;;;;;;;;;;;29.40;45.90;;;;;;4953410;28;44758;-59
2022/05/20 11:08:47;;;;;;;1.40;1.30;;;29.40;46.00;;;;;;4970503;28;45474;-64
2022/05/20 11:11:37;;;;;;;1.73;1.40;;;29.40;45.90;;;;;;4969436;28;45274;-62
2022/05/20 11:14:18;;;;;;;1.52;1.42;;;29.40;45.90;;;;;;4971877;28;45155;-66
2022/05/20 11:17:05;;;;;;;1.65;1.50;;;29.40;45.90;;;;;;4923361;28;44943;-62
2022/05/20 11:19:44;;;;;;;1.50;1.40;;;29.40;45.90;;;;;;4938879;28;46107;-58
2022/05/20 11:22:43;;;;;;;1.83;1.73;;;29.40;45.90;;;;;;4951824;28;45192;-60
2022/05/20 11:25:09;;;;;;;1.42;1.33;;;29.40;46.00;;;;;;4967001;28;45051;-64
2022/05/20 11:27:54;;;;;;;1.55;1.45;;;29.40;45.90;;;;;;4969900;28;45264;-59
2022/05/20 11:30:30;;;;;;;3.55;1.45;;;29.40;45.90;;;;;;4969909;28;45110;-61
2022/05/20 11:33:31;;;;;;;1.50;1.40;;;29.50;46.00;;;;;;4940407;28;44868;-61
2022/05/20 11:36:01;;;;;;;1.52;1.42;;;29.50;46.00;;;;;;4942297;28;44866;-62
2022/05/20 11:38:48;;;;;;;1.63;1.50;;;29.50;46.00;;;;;;4955907;28;45042;-63
2022/05/20 11:41:16;;;;;;;1.40;1.30;;;29.50;46.00;;;;;;4966678;28;46189;-61
2022/05/20 11:44:08;;;;;;;1.40;1.30;;;29.50;46.00;;;;;;4965414;28;45030;-63
2022/05/20 11:46:45;;;;;;;1.50;1.40;;;29.60;46.00;;;;;;4936513;28;45033;-61
2022/05/20 11:49:26;;;;;;;1.58;1.48;;;29.50;46.00;;;;;;4959606;28;45820;-67
2022/05/20 11:52:07;;;;;;;1.73;1.63;;;29.60;46.00;;;;;;4964257;28;46644;-62
2022/05/20 11:54:39;;;;;;;1.50;1.40;;;29.60;46.00;;;;;;4946336;28;45578;-63
2022/05/20 11:57:08;;;;;;;1.50;1.27;;;29.60;46.00;;;;;;4951354;28;44908;-63
2022/05/20 11:59:35;;;;;;;1.55;1.45;;;29.60;46.00;;;;;;4938831;28;45203;-62
2022/05/20 12:02:01;;;;;;;1.42;1.33;;;29.60;46.00;;;;;;4969686;28;45069;-64
2022/05/20 12:04:27;;;;;;;2.10;1.70;;;29.60;46.00;;;;;;4968761;28;44814;-60
2022/05/20 12:07:07;;;;;;;2.10;1.90;;;29.60;46.00;;;;;;4951114;28;45193;-58
2022/05/20 12:09:38;;;;;;;1.65;1.55;;;29.60;46.00;;;;;;4952889;28;45664;-62
2022/05/20 12:12:33;;;;;;;1.60;1.50;;;29.60;46.00;;;;;;4968027;28;46187;-60
2022/05/20 12:15:08;;;;;;;1.95;1.70;;;29.70;46.00;;;;;;4966363;28;45012;-62
2022/05/20 12:17:41;;;;;;;1.60;1.50;;;29.70;46.00;;;;;;4970384;28;44566;-63
2022/05/20 12:26:15;;;;;;;1.45;1.35;;;29.70;46.00;;;;;;4939535;28;45020;-60
2022/05/20 12:28:41;;;;;;;1.45;1.35;;;29.70;46.00;;;;;;4918318;28;45244;-62
2022/05/20 12:31:11;;;;;;;1.60;1.50;;;29.70;46.00;;;;;;4969000;28;44692;-62
2022/05/20 12:34:41;;;;;;;1.85;1.63;;;29.70;46.00;;;;;;4969236;28;45495;-62
2022/05/20 12:37:07;;;;;;;1.58;1.48;;;29.70;45.90;;;;;;4870600;29;44853;-61
2022/05/20 12:39:46;;;;;;;1.70;1.55;;;29.70;45.90;;;;;;4857347;29;44833;-60
2022/05/20 12:42:24;;;;;;;1.98;1.33;;;29.70;45.90;;;;;;4940613;28;45143;-63
2022/05/20 12:44:50;;;;;;;1.90;1.70;;;29.80;46.00;;;;;;4967881;28;45251;-60
2022/05/20 12:47:29;;;;;;;2.22;1.85;;;29.70;45.90;;;;;;4969894;28;44757;-64
2022/05/20 12:50:06;;;;;;;1.80;1.70;;;29.80;45.90;;;;;;4968289;28;44968;-60
2022/05/20 12:52:52;;;;;;;3.08;1.50;;;29.80;45.90;;;;;;4968841;28;44938;-64
2022/05/20 12:55:21;;;;;;;2.45;1.50;;;29.80;45.90;;;;;;4967965;28;46233;-63
2022/05/20 12:57:54;;;;;;;1.85;1.75;;;29.80;45.90;;;;;;4968176;28;44822;-60
2022/05/20 13:00:26;;;;;;;2.20;2.00;;;29.80;45.90;;;;;;4949135;28;45054;-63
2022/05/20 13:03:22;;;;;;;2.47;1.73;;;29.90;46.00;;;;;;4968029;28;45288;-63
2022/05/20 13:05:53;;;;;;;2.00;1.60;;;29.80;45.90;;;;;;4957635;28;46630;-61
2022/05/20 13:08:39;;;;;;;1.77;1.67;;;29.90;46.00;;;;;;4945835;28;45062;-59
2022/05/20 13:11:08;;;;;;;2.03;1.83;;;29.90;45.90;;;;;;4971158;28;44760;-62
2022/05/20 13:13:34;;;;;;;2.13;1.83;;;29.90;45.90;;;;;;4971377;28;45196;-62
2022/05/20 13:16:01;;;;;;;2.00;1.90;;;29.90;45.90;;;;;;4969845;28;46141;-62
2022/05/20 13:18:35;;;;;;;2.00;1.90;;;29.90;45.90;;;;;;4969296;28;45395;-61
2022/05/20 13:21:16;;;;;;;2.05;1.73;;;29.90;45.90;;;;;;4969277;28;44748;-63
2022/05/20 13:23:43;;;;;;;1.80;1.70;;;29.90;45.90;;;;;;4967138;28;44869;-60
2022/05/20 13:26:24;;;;;;;2.17;1.98;;;29.90;45.90;;;;;;4949737;28;46174;-60
2022/05/20 13:28:50;;;;;;;1.95;1.77;;;29.90;45.90;;;;;;4973017;28;44927;-60
2022/05/20 13:31:23;;;;;;;2.13;1.92;;;29.90;45.80;;;;;;4967310;28;44977;-60
2022/05/20 13:33:49;;;;;;;1.90;1.80;;;30.00;45.90;;;;;;4971277;28;45137;-62
2022/05/20 13:36:19;;;;;;;1.90;1.80;;;29.90;45.80;;;;;;4972113;28;46063;-63
2022/05/20 13:38:49;;;;;;;1.92;1.60;;;29.90;45.80;;;;;;4968114;28;44771;-62
2022/05/20 13:41:15;;;;;;;1.90;1.80;;;29.90;45.90;;;;;;4939056;28;44996;-61
2022/05/20 13:43:40;;;;;;;2.55;1.90;;;29.90;45.90;;;;;;4956576;28;45149;-61
2022/05/20 13:49:13;;;;;;;3.78;1.85;;;30.00;45.90;;;;;;4971126;28;44855;-64
2022/05/20 13:51:58;;;;;;;2.08;1.92;;;30.00;45.90;;;;;;4956271;28;45169;-63
2022/05/20 13:54:32;;;;;;;2.40;2.20;;;30.00;45.90;;;;;;4971001;28;45657;-60
2022/05/20 13:56:58;;;;;;;2.30;1.85;;;30.00;45.90;;;;;;4954839;28;45076;-61
2022/05/20 13:59:33;;;;;;;2.33;2.13;;;30.00;45.80;;;;;;4956045;28;44826;-61
2022/05/20 14:02:08;;;;;;;2.00;1.80;;;30.00;45.80;;;;;;4976722;28;45159;-62
2022/05/20 14:04:45;;;;;;;3.97;2.00;;;30.00;45.80;;;;;;4973521;28;45073;-63
2022/05/20 14:07:24;;;;;;;2.88;1.83;;;30.00;45.80;;;;;;4965038;28;46117;-66
2022/05/20 14:10:04;;;;;;;3.75;1.80;;;30.00;45.80;;;;;;4969246;28;44885;-62
2022/05/20 14:12:33;;;;;;;2.25;2.05;;;30.00;45.70;;;;;;4939090;28;44886;-63
2022/05/20 14:15:06;;;;;;;2.22;1.95;;;30.00;45.70;;;;;;4961213;28;45107;-61
2022/05/20 14:17:32;;;;;;;2.25;2.08;;;30.00;45.70;;;;;;4973034;28;46593;-61
2022/05/20 14:20:08;;;;;;;2.08;1.90;;;30.10;45.70;;;;;;4959472;28;45875;-61
2022/05/20 14:22:34;;;;;;;1.98;1.88;;;30.10;45.70;;;;;;4957738;28;45261;-62
2022/05/20 14:25:15;;;;;;;2.00;1.85;;;30.10;45.70;;;;;;4956044;28;44963;-61
2022/05/20 14:27:46;;;;;;;2.28;2.08;;;30.10;45.70;;;;;;4975682;28;46107;-60
2022/05/20 14:30:28;;;;;;;2.30;2.10;;;30.10;45.60;;;;;;4971396;28;44989;-63
2022/05/20 14:32:56;;;;;;;6.07;2.20;;;30.10;45.60;;;;;;4955410;28;45003;-61
2022/05/20 14:35:30;;;;;;;2.80;1.98;;;30.10;45.60;;;;;;4953054;28;44850;-64
2022/05/20 14:37:57;;;;;;;2.90;2.15;;;30.10;45.60;;;;;;4953853;28;45913;-60
2022/05/20 14:40:26;;;;;;;4.60;2.30;;;30.10;45.60;;;;;;4952766;28;45222;-61
2022/05/20 14:42:55;;;;;;;2.83;2.38;;;30.20;45.60;;;;;;4954403;28;44985;-62
2022/05/20 14:45:31;;;;;;;2.42;2.17;;;30.10;45.60;;;;;;4937760;28;45270;-65
2022/05/20 14:48:08;;;;;;;2.67;2.47;;;30.10;45.50;;;;;;4946819;28;45050;-63
2022/05/20 14:50:34;;;;;;;2.42;2.22;;;30.20;45.60;;;;;;4946598;28;44826;-62
2022/05/20 14:53:18;;;;;;;2.55;2.35;;;30.20;45.60;;;;;;4947440;28;45189;-64
2022/05/20 14:55:48;;;;;;;3.72;2.45;;;30.20;45.50;;;;;;4941192;28;45093;-63
2022/05/20 14:58:15;;;;;;;2.47;2.08;;;30.10;45.50;;;;;;4941032;28;47211;-61
2022/05/20 15:00:56;;;;;;;2.67;2.17;;;30.20;45.60;;;;;;4962598;28;45160;-62
2022/05/20 15:03:23;;;;;;;2.60;2.40;;;30.20;45.50;;;;;;4966129;28;45305;-61
2022/05/20 15:05:52;;;;;;;3.22;2.22;;;30.20;45.60;;;;;;4965854;28;45497;-65
2022/05/20 15:08:18;;;;;;;2.75;2.40;;;30.20;45.60;;;;;;4965062;28;46273;-62
2022/05/20 15:10:52;;;;;;;2.55;2.35;;;30.10;45.50;;;;;;4931808;28;45047;-62
2022/05/20 15:13:18;;;;;;;2.60;2.33;;;30.20;45.50;;;;;;4946856;28;44905;-63
2022/05/20 15:15:43;;;;;;;3.40;2.78;;;30.20;45.60;;;;;;4965485;28;45898;-61
2022/05/20 15:18:10;;;;;;;3.92;2.85;;;30.10;45.50;;;;;;4953425;28;46448;-61
2022/05/20 15:20:48;;;;;;;2.88;2.40;;;30.20;45.60;;;;;;4947253;28;46358;-62
2022/05/20 15:23:17;;;;;;;2.67;2.47;;;30.20;45.50;;;;;;4952339;28;45661;-63
2022/05/20 15:25:45;;;;;;;3.05;2.05;;;30.20;45.60;;;;;;4946913;28;45120;-62
2022/05/20 15:28:47;;;;;;;2.38;2.10;;;30.20;45.60;;;;;;4948346;28;45807;-63
2022/05/20 15:34:51;;;;;;;2.83;2.63;;;30.20;45.60;;;;;;4950423;28;44920;-63
2022/05/20 15:36:26;;;;;;;2.72;2.33;;;30.20;45.50;;;;;;4967342;28;45066;-61
2022/05/20 15:38:52;;;;;;;2.80;2.60;;;30.20;45.60;;;;;;4965580;28;45085;-62
2022/05/20 15:41:17;;;;;;;4.25;2.30;;;30.20;45.60;;;;;;4947768;28;45847;-61
2022/05/20 15:43:43;;;;;;;3.15;2.40;;;30.20;45.60;;;;;;4949835;28;44955;-60
2022/05/20 15:46:08;;;;;;;2.30;2.10;;;30.20;45.60;;;;;;4966265;28;45221;-64
2022/05/20 15:48:34;;;;;;;3.03;2.38;;;30.20;45.60;;;;;;4965140;28;45862;-59
2022/05/20 15:50:59;;;;;;;3.40;2.30;;;30.20;45.60;;;;;;4967075;28;45061;-62
2022/05/20 15:53:25;;;;;;;2.72;2.38;;;30.20;45.70;;;;;;4968107;28;45418;-60
2022/05/20 15:55:51;;;;;;;2.47;2.28;;;30.20;46.30;;;;;;4963696;28;45440;-62
2022/05/20 15:58:28;;;;;;;3.22;2.72;;;30.10;45.60;;;;;;4963234;28;45900;-64
2022/05/20 16:00:54;;;;;;;2.58;2.38;;;30.10;45.60;;;;;;4949046;28;45903;-61
2022/05/20 16:03:22;;;;;;;4.30;2.38;;;30.10;45.70;;;;;;4944959;28;44927;-64
2022/05/20 16:05:49;;;;;;;4.70;2.38;;;30.10;45.70;;;;;;4965492;28;45926;-61
2022/05/20 16:08:14;;;;;;;2.33;2.13;;;30.00;45.70;;;;;;4946245;28;46022;-63
2022/05/20 16:10:43;;;;;;;2.40;2.20;;;30.00;45.70;;;;;;4948062;28;45346;-60
2022/05/20 16:13:09;;;;;;;2.67;2.47;;;30.10;46.40;;;;;;4965704;28;45129;-61
2022/05/20 16:15:35;;;;;;;2.33;2.13;;;30.10;45.80;;;;;;4964073;28;44810;-61
2022/05/20 16:18:00;;;;;;;3.22;2.78;;;30.10;45.80;;;;;;4964194;28;46356;-62
2022/05/20 16:20:26;;;;;;;2.65;2.30;;;30.10;45.80;;;;;;4963040;28;45293;-62
2022/05/20 16:22:52;;;;;;;2.85;2.50;;;30.00;45.80;;;;;;4947651;28;45050;-62
2022/05/20 16:25:18;;;;;;;3.38;2.42;;;30.10;45.80;;;;;;4941957;28;45247;-62
2022/05/20 16:27:48;;;;;;;6.55;2.20;;;30.10;45.90;;;;;;4963866;28;46494;-61
2022/05/20 16:30:15;;;;;;;4.97;2.08;;;30.10;46.00;;;;;;4975688;28;45121;-61
2022/05/20 16:32:41;;;;;;;3.67;2.10;;;30.10;46.00;;;;;;4962040;28;44918;-66
2022/05/20 16:35:07;;;;;;;2.20;2.00;;;30.00;46.70;;;;;;4956574;28;45576;-63
2022/05/20 16:37:35;;;;;;;2.38;2.10;;;30.00;46.10;;;;;;4930432;28;46152;-66
2022/05/20 16:40:01;;;;;;;5.25;2.38;;;30.00;46.10;;;;;;4944686;28;45773;-62
2022/05/20 16:42:27;;;;;;;3.85;2.38;;;30.00;46.10;;;;;;4942240;28;44799;-59
2022/05/20 16:44:54;;;;;;;3.92;2.40;;;30.00;46.20;;;;;;4963996;28;45217;-63
2022/05/20 16:47:19;;;;;;;4.65;2.40;;;30.00;46.20;;;;;;4963975;28;46234;-61
2022/05/20 16:49:45;;;;;;;3.75;2.17;;;30.00;46.20;;;;;;4945567;28;44906;-62
2022/05/20 16:52:11;;;;;;;2.60;1.70;;;29.90;46.10;;;;;;4944076;28;45236;-64
2022/05/20 16:54:40;;;;;;;2.95;2.47;;;29.90;46.10;;;;;;4927824;28;45083;-62